createdAt,value
2022-09-15T00:01:54.057Z,3.92
2022-09-15T00:04:20.620Z,4.13
2022-09-15T00:06:47.206Z,5.13
2022-09-15T00:09:13.712Z,4.22
2022-09-15T00:11:40.276Z,4.95
2022-09-15T00:14:08.496Z,5.00
2022-09-15T00:16:35.452Z,4.72
2022-09-15T00:19:02.860Z,4.80
2022-09-15T00:21:31.909Z,4.70
2022-09-15T00:23:59.811Z,6.22
2022-09-15T00:26:28.223Z,6.20
2022-09-15T00:28:56.984Z,5.60
2022-09-15T00:31:25.278Z,6.78
2022-09-15T00:33:54.945Z,7.07
2022-09-15T00:36:22.873Z,7.28
2022-09-15T00:38:50.235Z,8.38
2022-09-15T00:41:19.167Z,6.85
2022-09-15T00:43:56.051Z,7.93
2022-09-15T00:47:04.272Z,7.00
2022-09-15T00:49:39.950Z,6.90
2022-09-15T00:52:14.185Z,6.70
2022-09-15T00:55:10.104Z,7.00
2022-09-15T00:57:47.683Z,7.03
2022-09-15T01:00:18.233Z,6.45
2022-09-15T01:02:47.115Z,6.45
2022-09-15T01:05:15.988Z,6.82
2022-09-15T01:08:00.053Z,8.57
2022-09-15T01:10:35.713Z,7.18
2022-09-15T01:13:05.734Z,6.90
2022-09-15T01:15:49.516Z,8.00
2022-09-15T01:18:27.628Z,8.25
2022-09-15T01:21:18.820Z,7.68
2022-09-15T01:24:05.266Z,6.45
2022-09-15T01:27:18.463Z,5.78
2022-09-15T01:30:06.051Z,5.43
2022-09-15T01:33:03.952Z,4.72
2022-09-15T01:35:39.594Z,5.00
2022-09-15T01:38:06.023Z,4.50
2022-09-15T01:40:39.108Z,3.88
2022-09-15T01:43:08.312Z,3.80
2022-09-15T01:48:04.875Z,4.07
2022-09-15T01:50:38.739Z,3.65
2022-09-15T01:53:12.927Z,3.72
2022-09-15T01:55:46.380Z,3.70
2022-09-15T01:58:12.909Z,4.20
2022-09-15T02:00:48.057Z,5.00
2022-09-15T02:03:22.312Z,5.00
2022-09-15T02:06:01.928Z,5.25
2022-09-15T02:08:52.296Z,5.70
2022-09-15T02:11:24.203Z,5.47
2022-09-15T02:14:20.768Z,5.43
2022-09-15T02:16:52.166Z,6.20
2022-09-15T02:19:31.097Z,6.35
2022-09-15T02:22:07.528Z,6.68
2022-09-15T02:25:02.778Z,6.78
2022-09-15T02:27:33.637Z,6.72
2022-09-15T02:30:07.685Z,7.05
2022-09-15T02:32:36.390Z,4.50
2022-09-15T02:35:07.909Z,3.63
2022-09-15T02:37:36.863Z,3.70
2022-09-15T02:40:04.499Z,3.55
2022-09-15T02:42:32.806Z,3.22
2022-09-15T02:45:00.612Z,3.80
2022-09-15T02:47:30.346Z,3.65
2022-09-15T02:49:57.029Z,3.50
2022-09-15T02:52:23.995Z,3.65
2022-09-15T02:54:50.569Z,3.65
2022-09-15T02:57:17.446Z,3.85
2022-09-15T03:00:02.505Z,4.18
2022-09-15T03:02:29.553Z,4.55
2022-09-15T03:04:56.044Z,5.38
2022-09-15T03:07:22.552Z,5.13
2022-09-15T03:09:49.120Z,6.40
2022-09-15T03:12:15.864Z,7.07
2022-09-15T03:14:42.789Z,7.68
2022-09-15T03:17:09.322Z,7.68
2022-09-15T03:19:35.984Z,7.57
2022-09-15T03:22:02.508Z,8.98
2022-09-15T03:24:29.076Z,7.30
2022-09-15T03:26:55.558Z,7.07
2022-09-15T03:29:22.180Z,7.32
2022-09-15T03:31:48.963Z,6.93
2022-09-15T03:34:15.743Z,8.02
2022-09-15T03:36:42.294Z,7.05
2022-09-15T03:39:11.105Z,7.85
2022-09-15T03:41:37.745Z,7.30
2022-09-15T03:44:04.529Z,6.68
2022-09-15T03:46:31.140Z,6.90
2022-09-15T03:48:57.653Z,6.95
2022-09-15T03:51:24.397Z,6.68
2022-09-15T03:53:51.124Z,6.25
2022-09-15T03:56:22.085Z,5.53
2022-09-15T03:58:48.825Z,5.30
2022-09-15T04:01:15.475Z,5.50
2022-09-15T04:03:46.414Z,5.47
2022-09-15T04:06:16.635Z,5.22
2022-09-15T04:08:43.792Z,6.10
2022-09-15T04:11:12.480Z,5.85
2022-09-15T04:13:40.632Z,6.60
2022-09-15T04:16:10.231Z,6.35
2022-09-15T04:18:37.172Z,6.38
2022-09-15T04:21:10.379Z,6.13
2022-09-15T04:23:37.088Z,6.50
2022-09-15T04:26:06.778Z,6.70
2022-09-15T04:28:35.692Z,6.80
2022-09-15T04:31:10.843Z,6.32
2022-09-15T04:33:38.605Z,4.65
2022-09-15T04:36:09.221Z,4.50
2022-09-15T04:38:36.141Z,4.38
2022-09-15T04:41:04.090Z,4.10
2022-09-15T04:43:30.647Z,3.72
2022-09-15T04:45:58.269Z,3.38
2022-09-15T04:48:25.261Z,3.75
2022-09-15T04:50:52.535Z,3.55
2022-09-15T04:53:19.540Z,3.50
2022-09-15T04:55:46.108Z,3.63
2022-09-15T04:58:12.952Z,3.22
2022-09-15T05:00:43.456Z,3.35
2022-09-15T05:03:11.470Z,4.20
2022-09-15T05:05:38.403Z,3.90
2022-09-15T05:08:05.084Z,4.28
2022-09-15T05:10:32.982Z,4.95
2022-09-15T05:12:59.627Z,4.25
2022-09-15T05:15:26.274Z,4.28
2022-09-15T05:17:52.795Z,4.28
2022-09-15T05:20:19.425Z,5.85
2022-09-15T05:22:45.927Z,3.70
2022-09-15T05:25:13.011Z,4.18
2022-09-15T05:27:39.510Z,4.18
2022-09-15T05:30:35.993Z,4.43
2022-09-15T05:32:54.040Z,4.93
2022-09-15T05:35:20.616Z,4.40
2022-09-15T05:37:47.118Z,4.30
2022-09-15T05:40:13.737Z,4.10
2022-09-15T05:42:40.360Z,4.00
2022-09-15T05:45:07.455Z,4.05
2022-09-15T05:47:33.991Z,3.97
2022-09-15T05:50:00.460Z,3.80
2022-09-15T05:52:26.929Z,3.80
2022-09-15T05:54:57.011Z,3.17
2022-09-15T05:57:25.592Z,3.60
2022-09-15T05:59:52.311Z,3.55
2022-09-15T06:02:18.856Z,3.55
2022-09-15T06:04:45.377Z,3.40
2022-09-15T06:07:12.303Z,3.38
2022-09-15T06:09:39.284Z,3.13
2022-09-15T06:12:05.925Z,3.17
2022-09-15T06:14:32.480Z,3.67
2022-09-15T06:16:58.948Z,3.47
2022-09-15T06:19:25.455Z,3.42
2022-09-15T06:21:52.117Z,3.35
2022-09-15T06:24:18.567Z,3.88
2022-09-15T06:26:45.047Z,3.35
2022-09-15T06:29:12.611Z,3.30
2022-09-15T06:31:39.450Z,3.97
2022-09-15T06:34:06.583Z,3.80
2022-09-15T06:36:33.139Z,3.58
2022-09-15T06:39:00.095Z,3.35
2022-09-15T06:41:33.029Z,3.17
2022-09-15T06:44:09.784Z,3.20
2022-09-15T06:46:36.399Z,3.10
2022-09-15T06:49:02.925Z,2.53
2022-09-15T06:51:35.136Z,2.95
2022-09-15T06:54:05.742Z,3.35
2022-09-15T06:56:35.826Z,2.80
2022-09-15T06:59:04.436Z,2.90
2022-09-15T07:01:31.980Z,2.90
2022-09-15T07:04:00.776Z,2.70
2022-09-15T07:06:32.512Z,3.28
2022-09-15T07:08:59.365Z,2.47
2022-09-15T07:11:26.387Z,2.85
2022-09-15T07:13:53.134Z,2.65
2022-09-15T07:16:20.659Z,2.55
2022-09-15T07:18:48.584Z,2.88
2022-09-15T07:21:19.711Z,2.13
2022-09-15T07:23:54.989Z,2.50
2022-09-15T07:26:27.187Z,2.80
2022-09-15T07:28:57.002Z,2.42
2022-09-15T07:31:26.654Z,2.92
2022-09-15T07:33:53.662Z,2.20
2022-09-15T07:36:21.007Z,2.45
2022-09-15T07:38:49.434Z,2.50
2022-09-15T07:41:18.754Z,2.70
2022-09-15T07:43:49.595Z,3.38
2022-09-15T07:46:17.012Z,3.65
2022-09-15T07:48:47.905Z,2.35
2022-09-15T07:51:15.495Z,2.67
2022-09-15T07:53:44.101Z,2.40
2022-09-15T07:56:10.687Z,2.15
2022-09-15T07:58:37.255Z,2.25
2022-09-15T08:01:11.395Z,2.35
2022-09-15T08:03:42.859Z,2.05
2022-09-15T08:06:10.293Z,2.00
2022-09-15T08:08:38.715Z,1.60
2022-09-15T08:11:12.193Z,1.77
2022-09-15T08:13:41.853Z,1.70
2022-09-15T08:16:14.665Z,1.95
2022-09-15T08:18:42.984Z,1.50
2022-09-15T08:21:12.409Z,1.60
2022-09-15T08:23:39.159Z,1.98
2022-09-15T08:26:11.815Z,2.08
2022-09-15T08:28:40.288Z,2.00
2022-09-15T08:31:09.580Z,1.60
2022-09-15T08:33:36.456Z,2.17
2022-09-15T08:36:10.776Z,1.40
2022-09-15T08:38:42.325Z,1.92
2022-09-15T08:41:25.316Z,1.58
2022-09-15T08:44:02.280Z,1.73
2022-09-15T08:46:42.943Z,1.67
2022-09-15T08:49:51.470Z,1.70
2022-09-15T08:52:40.957Z,1.90
2022-09-15T08:55:17.802Z,1.70
2022-09-15T08:57:44.940Z,1.35
2022-09-15T09:00:16.545Z,1.30
2022-09-15T09:03:07.765Z,1.40
2022-09-15T09:05:58.104Z,1.05
2022-09-15T09:08:43.316Z,1.33
2022-09-15T09:11:24.661Z,1.40
2022-09-15T09:14:05.649Z,1.17
2022-09-15T09:17:00.013Z,1.80
2022-09-15T09:19:38.863Z,1.15
2022-09-15T09:22:12.216Z,2.03
2022-09-15T09:24:47.720Z,1.67
2022-09-15T09:27:18.149Z,1.40
2022-09-15T09:29:50.359Z,1.27
2022-09-15T09:32:21.935Z,1.55
2022-09-15T09:35:08.910Z,1.20
2022-09-15T09:37:39.980Z,1.33
2022-09-15T09:40:17.467Z,1.30
2022-09-15T09:42:52.231Z,1.60
2022-09-15T09:45:27.621Z,1.17
2022-09-15T09:48:09.955Z,1.35
2022-09-15T09:50:47.186Z,1.52
2022-09-15T09:54:00.314Z,1.85
2022-09-15T09:56:50.593Z,1.60
2022-09-15T09:59:42.887Z,1.90
2022-09-15T10:02:13.785Z,1.70
2022-09-15T10:05:13.645Z,1.70
2022-09-15T10:07:53.740Z,2.03
2022-09-15T10:10:28.542Z,1.98
2022-09-15T10:13:28.137Z,1.98
2022-09-15T10:16:10.436Z,2.15
2022-09-15T10:18:42.000Z,2.08
2022-09-15T10:21:13.720Z,1.90
2022-09-15T10:23:49.285Z,2.20
2022-09-15T10:26:36.873Z,2.20
2022-09-15T10:29:20.233Z,2.30
2022-09-15T10:31:49.021Z,1.95
2022-09-15T10:34:39.442Z,2.30
2022-09-15T10:37:32.962Z,2.40
2022-09-15T10:40:30.149Z,2.28
2022-09-15T10:43:18.964Z,2.20
2022-09-15T10:46:02.972Z,2.20
2022-09-15T10:49:18.823Z,2.20
2022-09-15T10:55:53.027Z,2.30
2022-09-15T10:58:54.468Z,2.38
2022-09-15T11:01:32.695Z,2.17
2022-09-15T11:04:25.594Z,2.40
2022-09-15T11:07:22.908Z,2.15
2022-09-15T11:13:06.982Z,3.10
2022-09-15T11:18:55.191Z,3.90
2022-09-15T11:21:37.620Z,4.00
2022-09-15T11:24:28.272Z,4.07
2022-09-15T11:27:07.296Z,4.82
2022-09-15T11:32:19.208Z,4.80
2022-09-15T11:35:14.573Z,3.97
2022-09-15T11:37:58.155Z,4.30
2022-09-15T11:40:42.587Z,5.13
2022-09-15T11:43:29.687Z,5.03
2022-09-15T11:46:18.307Z,5.30
2022-09-15T11:51:23.573Z,3.45
2022-09-15T11:54:07.465Z,3.17
2022-09-15T11:56:43.954Z,3.78
2022-09-15T11:59:17.549Z,3.88
2022-09-15T12:02:20.978Z,3.03
2022-09-15T12:05:19.533Z,3.60
2022-09-15T12:07:49.638Z,3.00
2022-09-15T12:13:52.259Z,3.05
2022-09-15T12:16:32.003Z,2.92
2022-09-15T12:19:18.931Z,2.53
2022-09-15T12:22:14.716Z,2.60
2022-09-15T12:25:14.286Z,2.55
2022-09-15T12:28:05.103Z,2.50
2022-09-15T12:30:41.576Z,2.28
2022-09-15T12:33:43.193Z,2.60
2022-09-15T12:36:38.537Z,2.65
2022-09-15T12:39:54.578Z,3.28
2022-09-15T12:45:57.343Z,2.88
2022-09-15T12:48:46.791Z,2.80
2022-09-15T12:54:22.786Z,3.00
2022-09-15T12:56:58.794Z,3.47
2022-09-15T13:03:02.111Z,4.60
2022-09-15T13:05:54.501Z,4.63
2022-09-15T13:11:10.062Z,5.68
2022-09-15T13:14:05.412Z,4.72
2022-09-15T13:17:31.888Z,4.80
2022-09-15T13:20:08.894Z,4.47
2022-09-15T13:22:57.994Z,4.65
2022-09-15T13:31:26.654Z,3.50
2022-09-15T13:38:21.872Z,3.67
2022-09-15T13:41:11.794Z,3.65
2022-09-15T13:44:14.244Z,3.40
2022-09-15T13:46:59.991Z,3.50
2022-09-15T13:49:42.073Z,3.97
2022-09-15T13:52:40.774Z,3.60
2022-09-15T13:55:57.866Z,3.80
2022-09-15T13:58:56.601Z,3.72
2022-09-15T14:01:28.191Z,4.00
2022-09-15T14:04:13.055Z,4.13
2022-09-15T14:06:50.469Z,3.75
2022-09-15T14:09:37.240Z,5.88
2022-09-15T14:12:09.433Z,4.15
2022-09-15T14:14:50.657Z,3.72
2022-09-15T14:20:25.332Z,3.28
2022-09-15T14:23:23.152Z,4.55
2022-09-15T14:25:49.752Z,3.03
2022-09-15T14:28:38.548Z,3.03
2022-09-15T14:31:11.942Z,3.28
2022-09-15T14:33:45.276Z,2.80
2022-09-15T14:40:01.583Z,3.20
2022-09-15T14:42:40.025Z,2.85
2022-09-15T14:48:19.188Z,2.80
2022-09-15T14:50:54.085Z,2.67
2022-09-15T14:53:42.311Z,2.80
2022-09-15T14:56:24.490Z,2.80
2022-09-15T14:58:59.779Z,2.80
2022-09-15T15:01:50.933Z,3.15
2022-09-15T15:07:47.878Z,3.55
2022-09-15T15:10:36.030Z,4.13
2022-09-15T15:13:14.289Z,4.53
2022-09-15T15:15:44.591Z,4.40
2022-09-15T15:18:39.538Z,3.40
2022-09-15T15:21:34.701Z,3.00
2022-09-15T15:24:26.273Z,3.65
2022-09-15T15:27:34.253Z,3.47
2022-09-15T15:30:31.517Z,3.85
2022-09-15T15:33:02.818Z,3.67
2022-09-15T15:35:39.557Z,3.20
2022-09-15T15:41:04.320Z,4.07
2022-09-15T15:43:35.546Z,3.95
2022-09-15T15:46:20.750Z,3.85
2022-09-15T15:48:59.518Z,3.40
2022-09-15T15:54:17.396Z,3.40
2022-09-15T15:56:48.010Z,3.90
2022-09-15T15:59:28.036Z,3.67
2022-09-15T16:02:01.527Z,4.93
2022-09-15T16:04:37.862Z,3.33
2022-09-15T16:07:23.781Z,3.47
2022-09-15T16:09:50.967Z,2.95
2022-09-15T16:12:17.469Z,3.35
2022-09-15T16:14:44.411Z,3.10
2022-09-15T16:17:10.888Z,3.33
2022-09-15T16:19:38.327Z,3.40
2022-09-15T16:25:31.467Z,3.53
2022-09-15T16:28:15.470Z,3.97
2022-09-15T16:30:51.058Z,2.88
2022-09-15T16:33:37.417Z,3.00
2022-09-15T16:36:12.268Z,2.72
2022-09-15T16:38:42.142Z,3.15
2022-09-15T16:41:23.120Z,3.17
2022-09-15T16:43:56.864Z,2.92
2022-09-15T16:46:27.544Z,3.30
2022-09-15T16:49:00.493Z,3.70
2022-09-15T16:51:32.716Z,3.95
2022-09-15T16:54:06.509Z,3.58
2022-09-15T16:56:33.052Z,5.50
2022-09-15T16:59:00.871Z,4.25
2022-09-15T17:04:39.767Z,4.53
2022-09-15T17:07:10.230Z,4.05
2022-09-15T17:09:39.702Z,4.50
2022-09-15T17:12:09.429Z,4.80
2022-09-15T17:14:36.085Z,5.35
2022-09-15T17:17:03.360Z,5.47
2022-09-15T17:19:29.859Z,5.68
2022-09-15T17:21:56.468Z,4.68
2022-09-15T17:24:31.432Z,3.75
2022-09-15T17:27:07.500Z,3.20
2022-09-15T17:29:34.181Z,3.33
2022-09-15T17:32:00.785Z,3.22
2022-09-15T17:34:28.118Z,3.28
2022-09-15T17:37:21.135Z,2.95
2022-09-15T17:40:03.864Z,3.55
2022-09-15T17:42:35.454Z,3.40
2022-09-15T17:45:28.350Z,3.78
2022-09-15T17:47:57.971Z,2.80
2022-09-15T17:50:37.278Z,3.17
2022-09-15T17:55:56.101Z,3.03
2022-09-15T17:58:31.730Z,3.10
2022-09-15T18:01:01.377Z,2.60
2022-09-15T18:03:39.383Z,2.80
2022-09-15T18:06:13.602Z,2.95
2022-09-15T18:08:49.108Z,2.45
2022-09-15T18:11:27.977Z,2.33
2022-09-15T18:14:04.376Z,2.30
2022-09-15T18:16:30.886Z,2.33
2022-09-15T18:19:23.327Z,2.50
2022-09-15T18:21:57.130Z,2.22
2022-09-15T18:24:23.648Z,2.30
2022-09-15T18:29:41.825Z,2.60
2022-09-15T18:32:25.388Z,2.58
2022-09-15T18:34:54.244Z,2.58
2022-09-15T18:37:20.913Z,2.35
2022-09-15T18:43:10.722Z,2.55
2022-09-15T18:48:44.877Z,2.17
2022-09-15T18:51:51.246Z,2.40
2022-09-15T18:54:18.804Z,2.85
2022-09-15T18:56:52.719Z,2.38
2022-09-15T18:59:19.254Z,2.45
2022-09-15T19:01:48.671Z,3.25
2022-09-15T19:04:18.659Z,2.78
2022-09-15T19:10:22.287Z,3.47
2022-09-15T19:13:19.289Z,3.05
2022-09-15T19:18:58.282Z,3.05
2022-09-15T19:21:27.365Z,2.80
2022-09-15T19:26:32.220Z,4.07
2022-09-15T19:28:58.797Z,2.47
2022-09-15T19:31:32.372Z,2.95
2022-09-15T19:33:59.122Z,1.85
2022-09-15T19:36:43.835Z,2.33
2022-09-15T19:39:52.487Z,2.22
2022-09-15T19:42:22.154Z,2.42
2022-09-15T19:44:49.557Z,2.10
2022-09-15T19:47:20.822Z,3.00
2022-09-15T19:52:53.414Z,2.25
2022-09-15T19:55:26.492Z,2.03
2022-09-15T19:58:04.798Z,2.25
2022-09-15T20:03:30.144Z,2.35
2022-09-15T20:06:35.177Z,1.90
2022-09-15T20:09:10.915Z,2.08
2022-09-15T20:15:00.937Z,1.70
2022-09-15T20:17:56.703Z,1.70
2022-09-15T20:20:47.552Z,1.65
2022-09-15T20:23:15.092Z,1.85
2022-09-15T20:26:19.810Z,1.98
2022-09-15T20:29:23.819Z,1.50
2022-09-15T20:31:56.571Z,1.60
2022-09-15T20:35:02.075Z,1.90
2022-09-15T20:37:28.570Z,1.92
2022-09-15T20:39:55.188Z,1.73
2022-09-15T20:42:38.678Z,2.10
2022-09-15T20:45:40.595Z,1.60
2022-09-15T20:48:15.525Z,1.70
2022-09-15T20:51:44.262Z,1.77
2022-09-15T20:54:40.973Z,1.75
2022-09-15T20:57:24.493Z,1.75
2022-09-15T21:00:05.959Z,2.13
2022-09-15T21:07:59.467Z,1.60
2022-09-15T21:10:34.006Z,2.42
2022-09-15T21:13:12.431Z,1.70
2022-09-15T21:15:48.759Z,1.65
2022-09-15T21:18:18.856Z,1.75
2022-09-15T21:21:09.192Z,1.60
2022-09-15T21:23:41.631Z,2.00
2022-09-15T21:26:19.576Z,2.30
2022-09-15T21:28:57.506Z,1.67
2022-09-15T21:31:38.819Z,1.92
2022-09-15T21:34:11.833Z,1.80
2022-09-15T21:36:40.884Z,1.80
2022-09-15T21:39:41.212Z,2.00
2022-09-15T21:42:31.437Z,2.20
2022-09-15T21:45:25.007Z,1.75
2022-09-15T21:48:18.914Z,1.92
2022-09-15T21:57:21.868Z,1.77
2022-09-15T21:59:59.241Z,1.80
2022-09-15T22:02:26.099Z,2.08
2022-09-15T22:04:52.641Z,1.90
2022-09-15T22:07:21.203Z,1.73
2022-09-15T22:09:49.494Z,2.03
2022-09-15T22:12:23.723Z,2.22
2022-09-15T22:17:51.462Z,1.80
2022-09-15T22:20:33.145Z,1.98
2022-09-15T22:23:06.104Z,2.90
2022-09-15T22:25:33.262Z,1.95
2022-09-15T22:27:59.761Z,1.90
2022-09-15T22:30:40.866Z,1.70
2022-09-15T22:33:07.619Z,1.80
2022-09-15T22:35:38.969Z,1.98
2022-09-15T22:38:05.619Z,2.03
2022-09-15T22:40:41.769Z,2.17
2022-09-15T22:43:13.045Z,1.80
2022-09-15T22:45:40.727Z,1.70
2022-09-15T22:48:27.242Z,1.65
2022-09-15T22:50:58.309Z,2.00
2022-09-15T22:53:35.548Z,1.42
2022-09-15T22:56:20.498Z,1.77
2022-09-15T22:58:52.560Z,1.33
2022-09-15T23:01:27.771Z,1.35
2022-09-15T23:04:10.981Z,2.25
2022-09-15T23:06:40.837Z,1.70
2022-09-15T23:09:14.284Z,1.85
2022-09-15T23:11:44.749Z,1.52
2022-09-15T23:14:25.223Z,1.75
2022-09-15T23:16:51.861Z,1.45
2022-09-15T23:19:24.350Z,1.75
2022-09-15T23:21:50.931Z,1.80
2022-09-15T23:24:35.604Z,2.08
2022-09-15T23:27:13.080Z,1.70
2022-09-15T23:29:48.028Z,1.40
2022-09-15T23:35:16.354Z,1.38
2022-09-15T23:38:21.624Z,1.70
2022-09-15T23:40:59.353Z,1.60
2022-09-15T23:43:34.529Z,1.58
2022-09-15T23:46:02.987Z,1.60
2022-09-15T23:48:47.531Z,1.95
2022-09-15T23:51:23.074Z,1.60
2022-09-15T23:54:04.553Z,2.10
2022-09-15T23:56:48.251Z,1.65
2022-09-15T23:59:59.286Z,1.85
